x

Central Dixon Entrance Buoy (46145) Wave Buoy

7:00pm - Tue 16th Sep 2014 All times are PDT. -7 hours from GMT.

  • Sig Wave height 4.9ft
  • Peak Period 14s
  • Wind
    11mph, 13mph gusts
  • Sea Temp 56°f
  • Air Temp 56°f
  • Sea Pressure 1010.6mb
  • Central Dixon Entrance Buoy
  • Central Dixon Entrance Buoy

More Historic Weather Station data

Upgrade to MSW Pro to gain access to the past 30 days of data for over 8000 Wavebouys and Weather Stations around the globe.

Join Pro

Comparision Forecast

View Surf forecast
   
Tue 09/16 7:00pm 5ft 14s 11 13 mph 1010.6mb 56f 56f
6:00pm 5ft 12s 7 9 mph 1010.9mb 57f 57f
5:00pm 5ft 12s 2 4 mph 1011.3mb 57f 57f
4:00pm 5.5ft 14s 2 4 mph 1011.5mb 58f 57f
3:00pm 5ft 13s 2 4 mph 1011.9mb 57f 57f
2:00pm 6ft 12s  -  2 mph 1012.2mb 57f 59f
1:00pm 6ft 13s  -  mph 1012.2mb 57f 58f
12:00pm 5ft 14s 2 4 mph 1012.1mb 56f 56f
11:00am 5.5ft 14s 2 4 mph 1011.9mb 56f 56f
10:00am 5.5ft 14s 4 7 mph 1011.6mb 55f 56f
9:00am 5.5ft 14s 4 7 mph 1011.5mb 55f 55f
8:00am 5ft 14s 7 9 mph 1011.4mb 55f 55f
7:00am 5.5ft 14s 7 9 mph 1011.5mb 55f 55f
6:00am 6ft 10s 7 9 mph 1011.5mb 55f 55f
5:00am 5.5ft 14s 7 9 mph 1011.7mb 55f 55f
4:00am 6ft 14s 4 7 mph 1011.7mb 55f 55f
3:00am 6ft 11s 9 11 mph 1011.9mb 55f 55f
2:00am 6ft 12s 9 11 mph 1012.1mb 55f 56f
1:00am 6ft 13s 9 13 mph 1012.2mb 55f 56f
12:00am 7ft 14s 11 13 mph 1011.9mb 55f 55f
Mon 09/15 11:00pm 6ft 15s 11 13 mph 1011.8mb 55f 55f
10:00pm 5.5ft 15s 11 13 mph 1011.9mb 55f 55f
9:00pm 5ft 14s 13 16 mph 1011.7mb 55f 55f
8:00pm 4.5ft 13s 16 20 mph 1011.7mb 55f 56f
7:00pm 4.5ft 14s 11 13 mph 1011.9mb 55f 56f
6:00pm 4.5ft 15s 11 13 mph 1012.2mb 55f 56f
5:00pm 4.5ft 10s 9 11 mph 1012.5mb 56f 57f
4:00pm 3.5ft 9s 9 11 mph 1013mb 56f 56f
3:00pm 3.5ft 9s 7 9 mph 1013.4mb 56f 56f
2:00pm 2.5ft 10s 4 7 mph 1013.7mb 56f 56f
1:00pm 2.5ft 10s 9 11 mph 1013.9mb 56f 56f
12:00pm 3ft 10s 4
mph
1013.8mb 55f 55f
11:00am 3ft 10s 7 9 mph 1013.7mb 55f 55f
10:00am 3ft 10s 7 9 mph 1013.6mb 55f 55f
9:00am 3.5ft 10s 9
mph
1013.3mb 55f 55f
8:00am 3.5ft 9s 9 11 mph 1013.3mb 55f 55f
7:00am 3.5ft 10s 9 11 mph 1013.3mb 55f 55f
6:00am 3.5ft 11s 11
mph
1013.4mb 55f 55f
5:00am 4ft 10s 11 13 mph 1013.6mb 55f 55f
4:00am 4.5ft 10s 11 13 mph 1013.8mb 54f 54f
3:00am 4ft 9s 13 18 mph 1013.9mb 55f 55f
2:00am 4ft 8s 13 16 mph 1014.1mb 55f 55f
1:00am 4ft 8s 13
mph
1014.2mb 54f 54f
12:00am 4ft 9s 16 18 mph 1014.2mb 55f 54f
Sun 09/14 11:00pm 4ft 10s 13 18 mph 1014mb 55f 54f
10:00pm 4ft 9s 18 20 mph 1013.9mb 55f 54f
9:00pm 4.5ft 10s 18 22 mph 1013.8mb 55f 54f
8:00pm 4ft 10s 18 20 mph 1013.7mb 55f 53f
7:00pm 3.5ft 10s 18 20 mph 1014.1mb 55f 53f
6:00pm 3.5ft 10s 18 20 mph 1014.5mb 55f 53f
5:00pm 3.5ft 10s 16 18 mph 1015mb 55f 54f
4:00pm 3.5ft 10s 13 18 mph 1015.3mb 55f 54f
3:00pm 4.5ft 9s 16 20 mph 1015.7mb 55f 54f
2:00pm 4ft 10s 13 16 mph 1016.2mb 55f 53f
1:00pm 4ft 10s 11 16 mph 1016.4mb 55f 53f
12:00pm 4.5ft 8s 16 18 mph 1016.7mb 55f 53f
11:00am 4ft 10s 18 22 mph 1016.8mb 55f 53f
10:00am 3.5ft 8s 13 18 mph 1016.8mb 55f 53f
9:00am 3.5ft 9s 13 16 mph 1016.7mb 55f 53f
8:00am 4ft 11s 16 20 mph 1016.4mb 55f 52f
7:00am 4ft 9s 16 18 mph 1016.1mb 55f 53f
6:00am 3.5ft 8s 16 20 mph 1016.2mb 55f 53f
5:00am 3.5ft 9s 18 20 mph 1016.4mb 55f 53f
4:00am 3.5ft 9s 13 16 mph 1016.4mb 55f 55f
3:00am 4.5ft 4s 13 18 mph 1016.6mb 55f 55f
2:00am 4.5ft 8s 16 18 mph 1016.8mb 55f 54f
1:00am 4.5ft 8s 18 20 mph 1017mb 55f 53f
12:00am 4.5ft 8s 16 20 mph 1017.2mb 55f 53f
Sat 09/13 11:00pm 4.5ft 8s 16 20 mph 1017.2mb 55f 55f
10:00pm 4ft 8s 16 20 mph 1017.2mb 55f 55f
9:00pm 4ft 10s 18 22 mph 1017.1mb 55f 55f
8:00pm 4ft 5s 18 22 mph 1016.9mb 55f 55f
7:00pm 4.5ft 8s 20 25 mph 1017.2mb 56f 55f
6:00pm  -   -  22
mph
- - -
5:00pm 3.5ft 4s 20 25 mph 1018mb 56f 54f
4:00pm 3.5ft 9s 16 18 mph 1018.6mb 55f 54f
3:00pm 3.5ft 8s 16 18 mph 1018.8mb 55f 56f
2:00pm 3.5ft 5s 16 18 mph 1019.2mb 55f 55f
1:00pm 3.5ft 4s 16 20 mph 1019.6mb 55f 54f
12:00pm 3.5ft 5s 13 18 mph 1020mb 55f 54f
11:00am 3ft 5s 13 16 mph 1020.3mb 55f 55f
10:00am 2.5ft 10s 11 13 mph 1020.5mb 55f 54f
9:00am 2.5ft 9s 11 13 mph 1020.6mb 55f 52f
8:00am 2ft 11s 9 11 mph 1020.5mb 55f 52f
7:00am 2.5ft 8s 13 16 mph 1020.5mb 56f 55f
6:00am 2ft 10s 13 16 mph 1020.5mb 56f 55f
5:00am 2.5ft 9s 9 11 mph 1020.7mb 56f 55f
4:00am 2.5ft 8s 9 11 mph 1020.9mb 56f 55f